createdAt,value
2022-08-10T00:02:35.487Z,102040.70
2022-08-10T00:06:03.716Z,102043.30
2022-08-10T00:09:50.618Z,102044.95
2022-08-10T00:13:19.725Z,102049.10
2022-08-10T00:16:35.974Z,102048.30
2022-08-10T00:20:08.331Z,102046.83
2022-08-10T00:23:18.457Z,102049.05
2022-08-10T00:28:01.955Z,102050.73
2022-08-10T00:30:21.026Z,102051.85
2022-08-10T00:34:09.333Z,102051.13
2022-08-10T00:37:38.700Z,102054.56
2022-08-10T00:41:11.333Z,102051.69
2022-08-10T00:44:53.566Z,102051.84
2022-08-10T00:47:47.324Z,102049.85
2022-08-10T00:51:08.943Z,102048.92
2022-08-10T00:54:39.683Z,102051.89
2022-08-10T00:58:10.437Z,102050.05
2022-08-10T01:02:10.254Z,102046.52
2022-08-10T01:05:31.538Z,102046.21
2022-08-10T01:09:32.463Z,102046.59
2022-08-10T01:13:27.130Z,102042.70
2022-08-10T01:17:13.707Z,102046.13
2022-08-10T01:21:14.699Z,102041.39
2022-08-10T01:25:06.655Z,102045.00
2022-08-10T01:29:10.422Z,102041.38
2022-08-10T01:32:58.982Z,102046.92
2022-08-10T01:36:31.918Z,102040.45
2022-08-10T01:40:07.965Z,102043.20
2022-08-10T01:43:47.862Z,102042.48
2022-08-10T01:47:23.567Z,102041.05
2022-08-10T01:51:10.962Z,102041.39
2022-08-10T01:54:50.095Z,102040.38
2022-08-10T01:58:20.814Z,102039.55
2022-08-10T02:02:06.535Z,102046.64
2022-08-10T02:05:38.180Z,102047.44
2022-08-10T02:09:19.901Z,102048.41
2022-08-10T02:13:08.815Z,102042.20
2022-08-10T02:16:50.344Z,102042.21
2022-08-10T02:20:02.497Z,102038.98
2022-08-10T02:23:59.285Z,102039.80
2022-08-10T02:27:09.381Z,102039.64
2022-08-10T02:30:38.732Z,102039.92
2022-08-10T02:34:13.811Z,102039.26
2022-08-10T02:37:24.225Z,102041.87
2022-08-10T02:45:01.645Z,102044.02
2022-08-10T02:45:18.528Z,102046.52
2022-08-10T02:48:40.073Z,102045.02
2022-08-10T02:52:40.659Z,102044.33
2022-08-10T02:56:34.336Z,102047.98
2022-08-10T03:00:18.911Z,102053.34
2022-08-10T03:04:07.809Z,102048.96
2022-08-10T03:07:42.424Z,102051.46
2022-08-10T03:10:26.977Z,102050.25
2022-08-10T03:13:59.910Z,102046.86
2022-08-10T03:17:34.892Z,102051.02
2022-08-10T03:20:57.391Z,102050.12
2022-08-10T03:24:26.146Z,102054.27
2022-08-10T03:27:52.270Z,102065.41
2022-08-10T03:31:22.676Z,102061.99
2022-08-10T03:34:58.048Z,102062.45
2022-08-10T03:38:46.135Z,102066.80
2022-08-10T03:42:11.243Z,102068.94
2022-08-10T03:46:00.087Z,102070.18
2022-08-10T03:49:11.479Z,102068.05
2022-08-10T03:52:53.372Z,102070.30
2022-08-10T03:56:28.743Z,102072.33
2022-08-10T03:59:53.184Z,102071.48
2022-08-10T04:03:22.241Z,102072.48
2022-08-10T04:07:00.555Z,102075.08
2022-08-10T04:10:29.588Z,102075.77
2022-08-10T04:13:44.090Z,102074.66
2022-08-10T04:17:03.165Z,102075.58
2022-08-10T04:21:00.282Z,102075.98
2022-08-10T04:24:42.266Z,102073.98
2022-08-10T04:28:29.908Z,102074.00
2022-08-10T04:32:00.403Z,102075.58
2022-08-10T04:35:39.887Z,102076.56
2022-08-10T04:39:24.225Z,102079.58
2022-08-10T04:42:35.419Z,102073.17
2022-08-10T04:46:42.831Z,102074.48
2022-08-10T04:49:55.026Z,102078.61
2022-08-10T04:53:31.749Z,102080.85
2022-08-10T04:56:48.421Z,102089.23
2022-08-10T04:59:55.321Z,102094.52
2022-08-10T05:03:27.939Z,102094.06
2022-08-10T05:06:57.263Z,102095.30
2022-08-10T05:10:39.675Z,102097.79
2022-08-10T05:14:29.048Z,102101.38
2022-08-10T05:18:11.963Z,102103.23
2022-08-10T05:22:03.807Z,102103.45
2022-08-10T05:25:44.531Z,102103.92
2022-08-10T05:29:26.887Z,102109.11
2022-08-10T05:32:57.322Z,102109.81
2022-08-10T05:36:30.061Z,102101.84
2022-08-10T05:40:19.068Z,102103.38
2022-08-10T05:43:51.727Z,102106.89
2022-08-10T05:47:23.448Z,102107.98
2022-08-10T05:50:36.425Z,102110.98
2022-08-10T05:54:20.406Z,102112.20
2022-08-10T05:58:09.516Z,102111.77
2022-08-10T06:02:41.087Z,102116.09
2022-08-10T06:05:58.019Z,102115.13
2022-08-10T06:09:32.527Z,102118.09
2022-08-10T06:13:29.634Z,102119.93
2022-08-10T06:17:06.901Z,102119.58
2022-08-10T06:20:57.575Z,102121.60
2022-08-10T06:24:14.513Z,102115.98
2022-08-10T06:27:39.553Z,102118.52
2022-08-10T06:31:09.045Z,102127.48
2022-08-10T06:34:43.543Z,102125.48
2022-08-10T06:38:10.945Z,102122.98
2022-08-10T06:42:15.245Z,102128.00
2022-08-10T06:46:07.581Z,102131.00
2022-08-10T06:49:48.804Z,102128.86
2022-08-10T06:53:53.913Z,102127.37
2022-08-10T06:57:32.262Z,102131.59
2022-08-10T07:01:05.552Z,102127.84
2022-08-10T07:04:38.580Z,102129.66
2022-08-10T07:08:20.647Z,102126.92
2022-08-10T07:12:09.849Z,102125.42
2022-08-10T07:15:59.397Z,102122.55
2022-08-10T07:19:50.108Z,102119.61
2022-08-10T07:23:57.491Z,102119.01
2022-08-10T07:27:59.574Z,102114.46
2022-08-10T07:31:57.018Z,102110.83
2022-08-10T07:39:58.008Z,102115.34
2022-08-10T07:43:27.992Z,102122.30
2022-08-10T07:46:58.114Z,102118.38
2022-08-10T07:50:47.214Z,102116.37
2022-08-10T07:54:36.457Z,102110.48
2022-08-10T07:58:25.303Z,102117.27
2022-08-10T08:02:14.295Z,102112.56
2022-08-10T08:06:05.224Z,102111.41
2022-08-10T08:09:57.626Z,102116.09
2022-08-10T08:13:48.299Z,102120.59
2022-08-10T08:17:40.434Z,102119.05
2022-08-10T08:24:05.627Z,102106.69
2022-08-10T08:25:38.854Z,102107.52
2022-08-10T08:29:27.792Z,102101.34
2022-08-10T08:33:09.435Z,102096.82
2022-08-10T08:36:59.818Z,102099.02
2022-08-10T08:40:49.109Z,102094.16
2022-08-10T08:44:36.606Z,102101.66
2022-08-10T08:48:38.825Z,102094.08
2022-08-10T08:52:18.373Z,102095.04
2022-08-10T08:56:28.862Z,102089.41
2022-08-10T09:00:23.563Z,102090.05
2022-08-10T09:04:30.744Z,102093.84
2022-08-10T09:08:22.941Z,102088.48
2022-08-10T09:12:17.816Z,102086.55
2022-08-10T09:16:09.630Z,102086.01
2022-08-10T09:19:59.434Z,102085.85
2022-08-10T09:24:01.521Z,102079.38
2022-08-10T09:27:55.977Z,102082.19
2022-08-10T09:32:52.188Z,102085.54
2022-08-10T09:36:22.293Z,102080.35
2022-08-10T09:41:01.101Z,102074.64
2022-08-10T09:44:57.585Z,102071.13
2022-08-10T09:49:02.941Z,102060.99
2022-08-10T09:52:58.632Z,102061.55
2022-08-10T09:56:47.114Z,102060.02
2022-08-10T10:00:42.553Z,102057.28
2022-08-10T10:04:37.599Z,102047.40
2022-08-10T10:08:26.993Z,102048.48
2022-08-10T10:12:25.214Z,102049.02
2022-08-10T10:16:31.713Z,102036.70
2022-08-10T10:20:09.367Z,102036.77
2022-08-10T10:23:34.639Z,102033.82
2022-08-10T10:27:32.670Z,102028.04
2022-08-10T10:31:24.911Z,102019.89
2022-08-10T10:35:18.569Z,102018.36
2022-08-10T10:38:52.846Z,102008.01
2022-08-10T10:42:45.174Z,102009.25
2022-08-10T10:46:45.055Z,102008.30
2022-08-10T10:50:44.454Z,102013.08
2022-08-10T10:55:06.084Z,102013.59
2022-08-10T10:59:53.414Z,102005.65
2022-08-10T11:03:17.903Z,102006.54
2022-08-10T11:07:23.891Z,101999.03
2022-08-10T11:12:00.398Z,102001.20
2022-08-10T11:16:08.009Z,102000.27
2022-08-10T11:20:04.665Z,101997.40
2022-08-10T11:24:46.956Z,101999.63
2022-08-10T11:28:40.174Z,101991.81
2022-08-10T11:32:29.453Z,101991.56
2022-08-10T11:36:26.562Z,101985.68
2022-08-10T11:40:29.925Z,101986.44
2022-08-10T11:44:10.309Z,101987.73
2022-08-10T11:47:47.633Z,101985.39
2022-08-10T11:51:41.189Z,101983.38
2022-08-10T11:55:36.605Z,101972.05
2022-08-10T11:59:25.023Z,101966.65
2022-08-10T12:03:32.667Z,101970.85
2022-08-10T12:08:54.814Z,101973.48
2022-08-10T12:11:35.913Z,101969.59
2022-08-10T12:15:08.241Z,101964.34
2022-08-10T12:18:49.005Z,101962.49
2022-08-10T12:22:46.041Z,101958.69
2022-08-10T12:26:44.217Z,101950.37
2022-08-10T12:30:47.050Z,101945.23
2022-08-10T12:34:37.608Z,101951.33
2022-08-10T12:38:47.596Z,101955.15
2022-08-10T12:43:03.922Z,101958.92
2022-08-10T12:47:01.490Z,101946.84
2022-08-10T12:51:04.625Z,101946.52
2022-08-10T12:55:04.157Z,101934.25
2022-08-10T12:58:57.772Z,101932.11
2022-08-10T13:02:47.979Z,101923.70
2022-08-10T13:06:45.355Z,101913.85
2022-08-10T13:10:15.868Z,101908.45
2022-08-10T13:14:02.304Z,101906.51
2022-08-10T13:17:14.196Z,101896.35
2022-08-10T13:21:20.658Z,101894.90
2022-08-10T13:25:12.979Z,101894.63
2022-08-10T13:29:12.812Z,101888.42
2022-08-10T13:32:39.500Z,101892.95
2022-08-10T13:36:30.058Z,101891.52
2022-08-10T13:40:20.565Z,101889.08
2022-08-10T13:44:12.003Z,101884.70
2022-08-10T13:47:50.387Z,101881.82
2022-08-10T13:51:54.451Z,101879.37
2022-08-10T13:55:54.928Z,101879.47
2022-08-10T14:00:34.049Z,101870.48
2022-08-10T14:04:11.199Z,101869.70
2022-08-10T14:08:01.532Z,101870.48
2022-08-10T14:11:51.433Z,101864.63
2022-08-10T14:15:43.859Z,101858.10
2022-08-10T14:19:34.838Z,101850.36
2022-08-10T14:23:26.493Z,101842.97
2022-08-10T14:27:21.878Z,101836.44
2022-08-10T14:31:10.476Z,101834.89
2022-08-10T14:36:19.270Z,101828.74
2022-08-10T14:38:52.947Z,101825.05
2022-08-10T14:42:42.353Z,101831.83
2022-08-10T14:46:40.293Z,101835.73
2022-08-10T14:50:31.813Z,101833.01
2022-08-10T14:54:18.023Z,101831.47
2022-08-10T14:58:19.042Z,101834.02
2022-08-10T15:02:40.791Z,101825.13
2022-08-10T15:05:59.027Z,101824.24
2022-08-10T15:10:00.434Z,101824.41
2022-08-10T15:14:14.996Z,101816.52
2022-08-10T15:17:57.659Z,101818.19
2022-08-10T15:21:47.821Z,101817.63
2022-08-10T15:29:23.966Z,101807.63
2022-08-10T15:33:21.376Z,101806.21
2022-08-10T15:37:39.576Z,101802.84
2022-08-10T15:41:32.875Z,101798.38
2022-08-10T15:45:42.232Z,101792.38
2022-08-10T15:49:31.262Z,101799.17
2022-08-10T15:53:20.383Z,101790.70
2022-08-10T15:57:12.795Z,101786.40
2022-08-10T16:01:05.043Z,101788.16
2022-08-10T16:05:02.456Z,101786.48
2022-08-10T16:08:57.165Z,101783.84
2022-08-10T16:13:50.153Z,101787.70
2022-08-10T16:17:15.705Z,101779.84
2022-08-10T16:21:04.638Z,101776.80
2022-08-10T16:24:50.237Z,101774.87
2022-08-10T16:28:23.146Z,101776.85
2022-08-10T16:32:15.897Z,101778.60
2022-08-10T16:36:07.821Z,101782.98
2022-08-10T16:39:58.529Z,101787.52
2022-08-10T16:43:23.699Z,101779.77
2022-08-10T16:47:13.801Z,101778.23
2022-08-10T16:51:02.832Z,101779.84
2022-08-10T16:54:51.735Z,101774.82
2022-08-10T16:58:34.111Z,101774.51
2022-08-10T17:02:23.069Z,101775.83
2022-08-10T17:06:10.735Z,101776.08
2022-08-10T17:09:53.404Z,101774.85
2022-08-10T17:13:42.413Z,101772.49
2022-08-10T17:17:34.306Z,101774.80
2022-08-10T17:21:25.417Z,101774.27
2022-08-10T17:25:15.489Z,101777.62
2022-08-10T17:29:06.066Z,101777.09
2022-08-10T17:33:00.009Z,101774.06
2022-08-10T17:36:50.493Z,101771.77
2022-08-10T17:40:48.891Z,101768.36
2022-08-10T17:44:20.585Z,101772.70
2022-08-10T17:48:10.348Z,101775.25
2022-08-10T17:51:53.184Z,101776.54
2022-08-10T17:55:45.651Z,101777.23
2022-08-10T17:59:35.782Z,101781.02
2022-08-10T18:03:25.689Z,101780.64
2022-08-10T18:07:15.934Z,101783.34
2022-08-10T18:10:57.857Z,101783.48
2022-08-10T18:14:39.702Z,101784.60
2022-08-10T18:18:35.393Z,101785.77
2022-08-10T18:22:25.095Z,101791.36
2022-08-10T18:26:17.618Z,101792.27
2022-08-10T18:29:57.714Z,101797.15
2022-08-10T18:33:47.450Z,101794.55
2022-08-10T18:37:37.422Z,101797.77
2022-08-10T18:41:33.310Z,101800.80
2022-08-10T18:45:25.335Z,101799.32
2022-08-10T18:49:20.502Z,101807.35
2022-08-10T18:53:10.262Z,101812.83
2022-08-10T18:57:04.139Z,101816.11
2022-08-10T19:00:52.981Z,101820.09
2022-08-10T19:04:51.288Z,101824.12
2022-08-10T19:09:08.579Z,101826.02
2022-08-10T19:13:36.708Z,101828.30
2022-08-10T19:18:05.848Z,101823.30
2022-08-10T19:21:58.328Z,101825.50
2022-08-10T19:26:37.980Z,101833.86
2022-08-10T19:30:11.839Z,101836.08
2022-08-10T19:34:12.739Z,101835.02
2022-08-10T19:38:16.304Z,101836.89
2022-08-10T19:42:16.485Z,101836.41
2022-08-10T19:46:12.455Z,101837.11
2022-08-10T19:50:17.764Z,101839.45
2022-08-10T19:54:15.896Z,101843.06
2022-08-10T19:58:12.439Z,101836.58
2022-08-10T20:02:06.381Z,101836.17
2022-08-10T20:06:12.969Z,101840.70
2022-08-10T20:10:18.747Z,101842.14
2022-08-10T20:14:23.262Z,101852.86
2022-08-10T20:18:19.174Z,101849.51
2022-08-10T20:22:10.020Z,101854.30
2022-08-10T20:34:57.866Z,101855.61
2022-08-10T20:38:50.108Z,101857.67
2022-08-10T20:58:57.337Z,101855.66
2022-08-10T21:02:46.455Z,101851.59
2022-08-10T21:06:43.228Z,101851.84
2022-08-10T21:10:52.940Z,101856.56
2022-08-10T21:15:02.262Z,101854.59
2022-08-10T21:19:13.980Z,101852.56
2022-08-10T21:23:14.661Z,101853.55
2022-08-10T21:26:59.140Z,101857.11
2022-08-10T21:30:34.417Z,101859.48
2022-08-10T21:34:13.888Z,101851.40
2022-08-10T21:37:56.526Z,101850.36
2022-08-10T21:41:57.746Z,101853.23
2022-08-10T21:46:02.278Z,101853.60
2022-08-10T21:49:44.415Z,101850.09
2022-08-10T21:53:44.880Z,101848.52
2022-08-10T21:57:37.190Z,101849.88
2022-08-10T22:01:39.109Z,101853.01
2022-08-10T22:05:26.092Z,101853.31
2022-08-10T22:09:19.309Z,101846.83
2022-08-10T22:13:08.390Z,101841.05
2022-08-10T22:16:46.467Z,101840.67
2022-08-10T22:20:31.970Z,101843.05
2022-08-10T22:24:26.835Z,101840.14
2022-08-10T22:28:32.444Z,101836.05
2022-08-10T22:32:33.341Z,101832.77
2022-08-10T22:36:17.312Z,101833.41
2022-08-10T22:40:12.990Z,101838.16
2022-08-10T22:43:57.895Z,101838.25
2022-08-10T22:47:25.151Z,101838.77
2022-08-10T22:51:12.771Z,101837.70
2022-08-10T22:55:01.470Z,101838.84
2022-08-10T22:58:49.101Z,101839.94
2022-08-10T23:02:45.516Z,101840.18
2022-08-10T23:06:33.038Z,101840.88
2022-08-10T23:10:20.591Z,101845.64
2022-08-10T23:13:50.569Z,101848.11
2022-08-10T23:18:01.196Z,101840.09
2022-08-10T23:22:03.457Z,101842.48
2022-08-10T23:25:58.828Z,101846.39
2022-08-10T23:30:08.581Z,101852.08
2022-08-10T23:33:53.456Z,101852.85
2022-08-10T23:37:39.842Z,101852.46
2022-08-10T23:41:27.369Z,101845.99
2022-08-10T23:45:13.825Z,101843.50
2022-08-10T23:49:00.102Z,101843.36
2022-08-10T23:52:50.470Z,101847.89
2022-08-10T23:56:40.790Z,101856.19
